sensor_id;sensor_type;location;lat;lon;timestamp;temperature;humidity
20744;DHT22;56303;52.160;-0.428;2023-01-28T00:01:56;6.50;99.90
20744;DHT22;56303;52.160;-0.428;2023-01-28T00:04:24;6.50;99.90
20744;DHT22;56303;52.160;-0.428;2023-01-28T00:06:51;6.40;99.90
20744;DHT22;56303;52.160;-0.428;2023-01-28T00:09:19;6.40;99.90
20744;DHT22;56303;52.160;-0.428;2023-01-28T00:11:46;6.50;99.90
20744;DHT22;56303;52.160;-0.428;2023-01-28T00:14:12;6.60;99.90
20744;DHT22;56303;52.160;-0.428;2023-01-28T00:16:39;6.70;99.90
20744;DHT22;56303;52.160;-0.428;2023-01-28T00:19:06;6.80;99.90
20744;DHT22;56303;52.160;-0.428;2023-01-28T00:21:33;6.80;99.90
20744;DHT22;56303;52.160;-0.428;2023-01-28T00:24:00;6.80;99.90
20744;DHT22;56303;52.160;-0.428;2023-01-28T00:26:27;6.50;99.90
20744;DHT22;56303;52.160;-0.428;2023-01-28T00:28:55;6.30;99.90
20744;DHT22;56303;52.160;-0.428;2023-01-28T00:31:24;6.20;99.90
20744;DHT22;56303;52.160;-0.428;2023-01-28T00:33:54;6.20;99.90
20744;DHT22;56303;52.160;-0.428;2023-01-28T00:36:23;6.30;99.90
20744;DHT22;56303;52.160;-0.428;2023-01-28T00:38:56;6.40;99.90
20744;DHT22;56303;52.160;-0.428;2023-01-28T00:41:27;6.40;99.90
20744;DHT22;56303;52.160;-0.428;2023-01-28T00:43:54;6.40;99.90
20744;DHT22;56303;52.160;-0.428;2023-01-28T00:46:22;6.70;99.90
20744;DHT22;56303;52.160;-0.428;2023-01-28T00:48:49;6.60;99.90
20744;DHT22;56303;52.160;-0.428;2023-01-28T00:51:17;6.50;99.90
20744;DHT22;56303;52.160;-0.428;2023-01-28T00:53:46;6.50;99.90
20744;DHT22;56303;52.160;-0.428;2023-01-28T00:56:16;6.20;99.90
20744;DHT22;56303;52.160;-0.428;2023-01-28T00:58:44;5.80;99.90
20744;DHT22;56303;52.160;-0.428;2023-01-28T01:01:16;6.00;99.90
20744;DHT22;56303;52.160;-0.428;2023-01-28T01:03:44;6.10;99.90
20744;DHT22;56303;52.160;-0.428;2023-01-28T01:06:13;6.30;99.90
20744;DHT22;56303;52.160;-0.428;2023-01-28T01:08:40;6.40;99.90
20744;DHT22;56303;52.160;-0.428;2023-01-28T01:11:09;6.40;99.90
20744;DHT22;56303;52.160;-0.428;2023-01-28T01:13:37;6.40;99.90
20744;DHT22;56303;52.160;-0.428;2023-01-28T01:16:09;6.30;99.90
20744;DHT22;56303;52.160;-0.428;2023-01-28T01:18:37;6.40;99.90
20744;DHT22;56303;52.160;-0.428;2023-01-28T01:21:15;6.20;99.90
20744;DHT22;56303;52.160;-0.428;2023-01-28T01:23:43;6.30;99.90
20744;DHT22;56303;52.160;-0.428;2023-01-28T01:26:11;6.30;99.90
20744;DHT22;56303;52.160;-0.428;2023-01-28T01:28:38;6.30;99.90
20744;DHT22;56303;52.160;-0.428;2023-01-28T01:31:10;6.50;99.90
20744;DHT22;56303;52.160;-0.428;2023-01-28T01:33:38;6.20;99.90
20744;DHT22;56303;52.160;-0.428;2023-01-28T01:36:06;6.20;99.90
20744;DHT22;56303;52.160;-0.428;2023-01-28T01:38:34;6.10;99.90
20744;DHT22;56303;52.160;-0.428;2023-01-28T01:41:03;6.20;99.90
20744;DHT22;56303;52.160;-0.428;2023-01-28T01:43:53;6.30;99.90
20744;DHT22;56303;52.160;-0.428;2023-01-28T01:46:45;6.40;99.90
20744;DHT22;56303;52.160;-0.428;2023-01-28T01:49:22;6.40;99.90
20744;DHT22;56303;52.160;-0.428;2023-01-28T01:51:54;6.20;99.90
20744;DHT22;56303;52.160;-0.428;2023-01-28T01:54:23;6.40;99.90
20744;DHT22;56303;52.160;-0.428;2023-01-28T01:56:53;6.50;99.90
20744;DHT22;56303;52.160;-0.428;2023-01-28T01:59:27;6.40;99.90
20744;DHT22;56303;52.160;-0.428;2023-01-28T02:01:57;6.50;99.90
20744;DHT22;56303;52.160;-0.428;2023-01-28T02:04:33;6.50;99.90
20744;DHT22;56303;52.160;-0.428;2023-01-28T02:07:01;6.40;99.90
20744;DHT22;56303;52.160;-0.428;2023-01-28T02:09:31;6.40;99.90
20744;DHT22;56303;52.160;-0.428;2023-01-28T02:14:33;6.30;99.90
20744;DHT22;56303;52.160;-0.428;2023-01-28T02:17:02;6.30;99.90
20744;DHT22;56303;52.160;-0.428;2023-01-28T02:19:51;6.40;99.90
20744;DHT22;56303;52.160;-0.428;2023-01-28T02:25:05;6.30;99.90
20744;DHT22;56303;52.160;-0.428;2023-01-28T02:30:32;6.20;99.90
20744;DHT22;56303;52.160;-0.428;2023-01-28T02:36:17;5.80;99.90
20744;DHT22;56303;52.160;-0.428;2023-01-28T02:38:49;5.90;99.90
20744;DHT22;56303;52.160;-0.428;2023-01-28T02:41:28;6.10;99.90
20744;DHT22;56303;52.160;-0.428;2023-01-28T02:43:57;6.20;99.90
20744;DHT22;56303;52.160;-0.428;2023-01-28T02:49:27;6.30;99.90
20744;DHT22;56303;52.160;-0.428;2023-01-28T02:52:24;6.10;99.90
20744;DHT22;56303;52.160;-0.428;2023-01-28T02:58:25;6.20;99.90
20744;DHT22;56303;52.160;-0.428;2023-01-28T03:01:12;6.20;99.90
20744;DHT22;56303;52.160;-0.428;2023-01-28T03:06:13;6.30;99.90
20744;DHT22;56303;52.160;-0.428;2023-01-28T03:08:45;6.10;99.90
20744;DHT22;56303;52.160;-0.428;2023-01-28T03:11:35;5.90;99.90
20744;DHT22;56303;52.160;-0.428;2023-01-28T03:14:22;5.70;99.90
20744;DHT22;56303;52.160;-0.428;2023-01-28T03:17:14;5.70;99.90
20744;DHT22;56303;52.160;-0.428;2023-01-28T03:20:00;5.90;99.90
20744;DHT22;56303;52.160;-0.428;2023-01-28T03:22:50;5.80;99.90
20744;DHT22;56303;52.160;-0.428;2023-01-28T03:25:37;5.80;99.90
20744;DHT22;56303;52.160;-0.428;2023-01-28T03:28:25;5.80;99.90
20744;DHT22;56303;52.160;-0.428;2023-01-28T03:31:14;5.90;99.90
20744;DHT22;56303;52.160;-0.428;2023-01-28T03:34:01;6.00;99.90
20744;DHT22;56303;52.160;-0.428;2023-01-28T03:36:48;5.90;99.90
20744;DHT22;56303;52.160;-0.428;2023-01-28T03:39:17;5.90;99.90
20744;DHT22;56303;52.160;-0.428;2023-01-28T03:42:05;5.80;99.90
20744;DHT22;56303;52.160;-0.428;2023-01-28T03:44:32;5.70;99.90
20744;DHT22;56303;52.160;-0.428;2023-01-28T03:47:23;5.80;99.90
20744;DHT22;56303;52.160;-0.428;2023-01-28T03:49:51;5.90;99.90
20744;DHT22;56303;52.160;-0.428;2023-01-28T03:52:21;5.90;99.90
20744;DHT22;56303;52.160;-0.428;2023-01-28T03:54:48;6.00;99.90
20744;DHT22;56303;52.160;-0.428;2023-01-28T03:57:17;5.70;99.90
20744;DHT22;56303;52.160;-0.428;2023-01-28T03:59:44;5.80;99.90
20744;DHT22;56303;52.160;-0.428;2023-01-28T04:02:11;5.90;99.90
20744;DHT22;56303;52.160;-0.428;2023-01-28T04:04:39;6.00;99.90
20744;DHT22;56303;52.160;-0.428;2023-01-28T04:07:07;6.00;99.90
20744;DHT22;56303;52.160;-0.428;2023-01-28T04:09:37;6.10;99.90
20744;DHT22;56303;52.160;-0.428;2023-01-28T04:12:04;6.10;99.90
20744;DHT22;56303;52.160;-0.428;2023-01-28T04:14:32;6.20;99.90
20744;DHT22;56303;52.160;-0.428;2023-01-28T04:16:58;6.10;99.90
20744;DHT22;56303;52.160;-0.428;2023-01-28T04:19:26;6.00;99.90
20744;DHT22;56303;52.160;-0.428;2023-01-28T04:21:53;6.20;99.90
20744;DHT22;56303;52.160;-0.428;2023-01-28T04:24:22;6.20;99.90
20744;DHT22;56303;52.160;-0.428;2023-01-28T04:26:48;6.20;99.90
20744;DHT22;56303;52.160;-0.428;2023-01-28T04:29:15;6.50;99.90
20744;DHT22;56303;52.160;-0.428;2023-01-28T04:31:42;6.30;99.90
20744;DHT22;56303;52.160;-0.428;2023-01-28T04:34:09;6.10;99.90
20744;DHT22;56303;52.160;-0.428;2023-01-28T04:36:36;6.20;99.90
20744;DHT22;56303;52.160;-0.428;2023-01-28T04:39:03;5.90;99.90
20744;DHT22;56303;52.160;-0.428;2023-01-28T04:41:30;5.50;99.90
20744;DHT22;56303;52.160;-0.428;2023-01-28T04:43:56;5.60;99.90
20744;DHT22;56303;52.160;-0.428;2023-01-28T04:46:23;5.80;99.90
20744;DHT22;56303;52.160;-0.428;2023-01-28T04:48:50;5.90;99.90
20744;DHT22;56303;52.160;-0.428;2023-01-28T04:51:17;6.00;99.90
20744;DHT22;56303;52.160;-0.428;2023-01-28T04:53:44;6.20;99.90
20744;DHT22;56303;52.160;-0.428;2023-01-28T04:56:11;7.10;99.90
20744;DHT22;56303;52.160;-0.428;2023-01-28T04:58:38;6.50;99.90
20744;DHT22;56303;52.160;-0.428;2023-01-28T05:01:06;6.30;99.90
20744;DHT22;56303;52.160;-0.428;2023-01-28T05:03:33;6.10;99.90
20744;DHT22;56303;52.160;-0.428;2023-01-28T05:06:02;5.80;99.90
20744;DHT22;56303;52.160;-0.428;2023-01-28T05:08:30;5.70;99.90
20744;DHT22;56303;52.160;-0.428;2023-01-28T05:10:57;6.00;99.90
20744;DHT22;56303;52.160;-0.428;2023-01-28T05:13:24;6.10;99.90
20744;DHT22;56303;52.160;-0.428;2023-01-28T05:15:52;5.90;99.90
20744;DHT22;56303;52.160;-0.428;2023-01-28T05:18:19;6.70;99.90
20744;DHT22;56303;52.160;-0.428;2023-01-28T05:20:47;5.90;99.90
20744;DHT22;56303;52.160;-0.428;2023-01-28T05:23:14;6.10;99.90
20744;DHT22;56303;52.160;-0.428;2023-01-28T05:25:41;6.10;99.90
20744;DHT22;56303;52.160;-0.428;2023-01-28T05:28:07;6.00;99.90
20744;DHT22;56303;52.160;-0.428;2023-01-28T05:30:34;6.00;99.90
20744;DHT22;56303;52.160;-0.428;2023-01-28T05:33:01;5.60;99.90
20744;DHT22;56303;52.160;-0.428;2023-01-28T05:35:28;5.60;99.90
20744;DHT22;56303;52.160;-0.428;2023-01-28T05:37:54;5.50;99.90
20744;DHT22;56303;52.160;-0.428;2023-01-28T05:40:21;5.60;99.90
20744;DHT22;56303;52.160;-0.428;2023-01-28T05:42:48;5.70;99.90
20744;DHT22;56303;52.160;-0.428;2023-01-28T05:45:15;5.70;99.90
20744;DHT22;56303;52.160;-0.428;2023-01-28T05:47:42;5.70;99.90
20744;DHT22;56303;52.160;-0.428;2023-01-28T05:50:12;5.50;99.90
20744;DHT22;56303;52.160;-0.428;2023-01-28T05:52:40;5.70;99.90
20744;DHT22;56303;52.160;-0.428;2023-01-28T05:55:09;5.70;99.90
20744;DHT22;56303;52.160;-0.428;2023-01-28T05:57:37;5.70;99.90
20744;DHT22;56303;52.160;-0.428;2023-01-28T06:00:04;5.80;99.90
20744;DHT22;56303;52.160;-0.428;2023-01-28T06:02:31;5.40;99.90
20744;DHT22;56303;52.160;-0.428;2023-01-28T06:04:59;5.30;99.90
20744;DHT22;56303;52.160;-0.428;2023-01-28T06:07:26;5.40;99.90
20744;DHT22;56303;52.160;-0.428;2023-01-28T06:09:52;5.50;99.90
20744;DHT22;56303;52.160;-0.428;2023-01-28T06:12:21;5.60;99.90
20744;DHT22;56303;52.160;-0.428;2023-01-28T06:14:48;5.90;99.90
20744;DHT22;56303;52.160;-0.428;2023-01-28T06:17:15;6.00;99.90
20744;DHT22;56303;52.160;-0.428;2023-01-28T06:19:42;5.90;99.90
20744;DHT22;56303;52.160;-0.428;2023-01-28T06:22:09;5.80;99.90
20744;DHT22;56303;52.160;-0.428;2023-01-28T06:24:36;6.60;99.90
20744;DHT22;56303;52.160;-0.428;2023-01-28T06:27:03;5.90;99.90
20744;DHT22;56303;52.160;-0.428;2023-01-28T06:29:30;6.00;99.90
20744;DHT22;56303;52.160;-0.428;2023-01-28T06:31:57;5.70;99.90
20744;DHT22;56303;52.160;-0.428;2023-01-28T06:34:24;5.80;99.90
20744;DHT22;56303;52.160;-0.428;2023-01-28T06:36:51;6.00;99.90
20744;DHT22;56303;52.160;-0.428;2023-01-28T06:39:20;6.10;99.90
20744;DHT22;56303;52.160;-0.428;2023-01-28T06:41:49;6.20;99.90
20744;DHT22;56303;52.160;-0.428;2023-01-28T06:44:16;6.10;99.90
20744;DHT22;56303;52.160;-0.428;2023-01-28T06:46:43;6.30;99.90
20744;DHT22;56303;52.160;-0.428;2023-01-28T06:49:10;6.20;99.90
20744;DHT22;56303;52.160;-0.428;2023-01-28T06:51:37;6.10;99.90
20744;DHT22;56303;52.160;-0.428;2023-01-28T06:54:04;6.20;99.90
20744;DHT22;56303;52.160;-0.428;2023-01-28T06:56:31;6.20;99.90
20744;DHT22;56303;52.160;-0.428;2023-01-28T06:58:58;6.10;99.90
20744;DHT22;56303;52.160;-0.428;2023-01-28T07:01:28;6.10;99.90
20744;DHT22;56303;52.160;-0.428;2023-01-28T07:03:55;6.20;99.90
20744;DHT22;56303;52.160;-0.428;2023-01-28T07:06:22;6.00;99.90
20744;DHT22;56303;52.160;-0.428;2023-01-28T07:08:52;6.10;99.90
20744;DHT22;56303;52.160;-0.428;2023-01-28T07:11:20;6.20;99.90
20744;DHT22;56303;52.160;-0.428;2023-01-28T07:13:47;6.30;99.90
20744;DHT22;56303;52.160;-0.428;2023-01-28T07:16:14;6.30;99.90
20744;DHT22;56303;52.160;-0.428;2023-01-28T07:18:41;6.40;99.90
20744;DHT22;56303;52.160;-0.428;2023-01-28T07:21:08;6.70;99.90
20744;DHT22;56303;52.160;-0.428;2023-01-28T07:23:35;6.50;99.90
20744;DHT22;56303;52.160;-0.428;2023-01-28T07:26:03;6.40;99.90
20744;DHT22;56303;52.160;-0.428;2023-01-28T07:28:31;6.40;99.90
20744;DHT22;56303;52.160;-0.428;2023-01-28T07:31:00;6.50;99.90
20744;DHT22;56303;52.160;-0.428;2023-01-28T07:33:27;6.20;99.90
20744;DHT22;56303;52.160;-0.428;2023-01-28T07:35:54;5.90;99.90
20744;DHT22;56303;52.160;-0.428;2023-01-28T07:38:21;5.70;99.90
20744;DHT22;56303;52.160;-0.428;2023-01-28T07:40:48;5.80;99.90
20744;DHT22;56303;52.160;-0.428;2023-01-28T07:43:15;5.90;99.90
20744;DHT22;56303;52.160;-0.428;2023-01-28T07:45:41;6.30;99.90
20744;DHT22;56303;52.160;-0.428;2023-01-28T07:48:11;6.20;99.90
20744;DHT22;56303;52.160;-0.428;2023-01-28T07:50:39;6.20;99.90
20744;DHT22;56303;52.160;-0.428;2023-01-28T07:53:09;6.20;99.90
20744;DHT22;56303;52.160;-0.428;2023-01-28T07:55:37;6.20;99.90
20744;DHT22;56303;52.160;-0.428;2023-01-28T07:58:06;6.20;99.90
20744;DHT22;56303;52.160;-0.428;2023-01-28T08:00:35;5.80;99.90
20744;DHT22;56303;52.160;-0.428;2023-01-28T08:03:12;6.00;99.90
20744;DHT22;56303;52.160;-0.428;2023-01-28T08:05:47;6.20;99.90
20744;DHT22;56303;52.160;-0.428;2023-01-28T08:08:15;6.30;99.90
20744;DHT22;56303;52.160;-0.428;2023-01-28T08:10:43;6.30;99.90
20744;DHT22;56303;52.160;-0.428;2023-01-28T08:13:11;6.30;99.90
20744;DHT22;56303;52.160;-0.428;2023-01-28T08:15:39;6.30;99.90
20744;DHT22;56303;52.160;-0.428;2023-01-28T08:18:08;6.30;99.90
20744;DHT22;56303;52.160;-0.428;2023-01-28T08:20:36;6.10;99.90
20744;DHT22;56303;52.160;-0.428;2023-01-28T08:23:08;6.00;99.90
20744;DHT22;56303;52.160;-0.428;2023-01-28T08:25:35;6.00;99.90
20744;DHT22;56303;52.160;-0.428;2023-01-28T08:28:02;6.20;99.90
20744;DHT22;56303;52.160;-0.428;2023-01-28T08:30:29;6.20;99.90
20744;DHT22;56303;52.160;-0.428;2023-01-28T08:32:57;6.40;99.90
20744;DHT22;56303;52.160;-0.428;2023-01-28T08:35:26;6.40;99.90
20744;DHT22;56303;52.160;-0.428;2023-01-28T08:37:53;6.50;99.90
20744;DHT22;56303;52.160;-0.428;2023-01-28T08:40:21;4.90;99.90
20744;DHT22;56303;52.160;-0.428;2023-01-28T08:42:52;6.40;99.90
20744;DHT22;56303;52.160;-0.428;2023-01-28T08:45:21;6.00;99.90
20744;DHT22;56303;52.160;-0.428;2023-01-28T08:48:01;5.80;99.90
20744;DHT22;56303;52.160;-0.428;2023-01-28T08:50:31;6.10;99.90
20744;DHT22;56303;52.160;-0.428;2023-01-28T08:53:02;6.10;99.90
20744;DHT22;56303;52.160;-0.428;2023-01-28T08:55:30;6.10;99.90
20744;DHT22;56303;52.160;-0.428;2023-01-28T08:58:05;7.30;99.90
20744;DHT22;56303;52.160;-0.428;2023-01-28T09:00:33;6.10;99.90
20744;DHT22;56303;52.160;-0.428;2023-01-28T09:03:04;6.00;99.90
20744;DHT22;56303;52.160;-0.428;2023-01-28T09:05:45;6.00;99.90
20744;DHT22;56303;52.160;-0.428;2023-01-28T09:08:19;6.10;99.90
20744;DHT22;56303;52.160;-0.428;2023-01-28T09:10:46;6.30;99.90
20744;DHT22;56303;52.160;-0.428;2023-01-28T09:13:14;6.30;99.90
20744;DHT22;56303;52.160;-0.428;2023-01-28T09:15:42;6.50;99.90
20744;DHT22;56303;52.160;-0.428;2023-01-28T09:18:09;6.60;99.90
20744;DHT22;56303;52.160;-0.428;2023-01-28T09:20:38;6.80;99.90
20744;DHT22;56303;52.160;-0.428;2023-01-28T09:23:06;7.00;99.90
20744;DHT22;56303;52.160;-0.428;2023-01-28T09:25:33;7.00;99.90
20744;DHT22;56303;52.160;-0.428;2023-01-28T09:28:01;7.10;99.90
20744;DHT22;56303;52.160;-0.428;2023-01-28T09:30:28;7.10;99.90
20744;DHT22;56303;52.160;-0.428;2023-01-28T09:32:56;7.10;99.90
20744;DHT22;56303;52.160;-0.428;2023-01-28T09:35:24;7.00;99.90
20744;DHT22;56303;52.160;-0.428;2023-01-28T09:37:51;7.00;99.90
20744;DHT22;56303;52.160;-0.428;2023-01-28T09:40:40;6.90;99.90
20744;DHT22;56303;52.160;-0.428;2023-01-28T09:43:36;7.00;99.90
20744;DHT22;56303;52.160;-0.428;2023-01-28T09:46:10;7.00;99.90
20744;DHT22;56303;52.160;-0.428;2023-01-28T09:48:44;6.70;99.90
20744;DHT22;56303;52.160;-0.428;2023-01-28T09:51:30;6.70;99.90
20744;DHT22;56303;52.160;-0.428;2023-01-28T09:56:47;7.10;99.90
20744;DHT22;56303;52.160;-0.428;2023-01-28T09:59:20;7.00;99.90
20744;DHT22;56303;52.160;-0.428;2023-01-28T10:01:57;7.00;99.90
20744;DHT22;56303;52.160;-0.428;2023-01-28T10:04:44;7.40;99.90
20744;DHT22;56303;52.160;-0.428;2023-01-28T10:07:46;7.30;99.90
20744;DHT22;56303;52.160;-0.428;2023-01-28T10:10:26;7.00;99.90
20744;DHT22;56303;52.160;-0.428;2023-01-28T10:13:50;7.00;99.90
20744;DHT22;56303;52.160;-0.428;2023-01-28T10:16:33;7.00;99.90
20744;DHT22;56303;52.160;-0.428;2023-01-28T10:19:11;7.30;99.90
20744;DHT22;56303;52.160;-0.428;2023-01-28T10:21:59;7.50;99.90
20744;DHT22;56303;52.160;-0.428;2023-01-28T10:24:59;7.80;99.90
20744;DHT22;56303;52.160;-0.428;2023-01-28T10:27:33;7.80;99.90
20744;DHT22;56303;52.160;-0.428;2023-01-28T10:30:21;7.70;99.90
20744;DHT22;56303;52.160;-0.428;2023-01-28T10:33:02;7.80;99.90
20744;DHT22;56303;52.160;-0.428;2023-01-28T10:35:40;7.80;99.90
20744;DHT22;56303;52.160;-0.428;2023-01-28T10:38:11;7.70;99.90
20744;DHT22;56303;52.160;-0.428;2023-01-28T10:40:42;7.60;99.90
20744;DHT22;56303;52.160;-0.428;2023-01-28T10:43:09;7.60;99.90
20744;DHT22;56303;52.160;-0.428;2023-01-28T10:45:39;7.60;99.90
20744;DHT22;56303;52.160;-0.428;2023-01-28T10:48:25;7.60;99.90
20744;DHT22;56303;52.160;-0.428;2023-01-28T10:50:56;7.90;99.90
20744;DHT22;56303;52.160;-0.428;2023-01-28T10:53:52;8.00;99.90
20744;DHT22;56303;52.160;-0.428;2023-01-28T10:56:31;8.00;99.90
20744;DHT22;56303;52.160;-0.428;2023-01-28T10:59:06;8.00;99.90
20744;DHT22;56303;52.160;-0.428;2023-01-28T11:04:20;7.80;99.90
20744;DHT22;56303;52.160;-0.428;2023-01-28T11:06:52;7.50;99.90
20744;DHT22;56303;52.160;-0.428;2023-01-28T11:09:21;7.90;99.90
20744;DHT22;56303;52.160;-0.428;2023-01-28T11:11:48;7.90;99.90
20744;DHT22;56303;52.160;-0.428;2023-01-28T11:14:20;7.80;99.90
20744;DHT22;56303;52.160;-0.428;2023-01-28T11:16:48;7.70;99.90
20744;DHT22;56303;52.160;-0.428;2023-01-28T11:19:18;7.60;99.90
20744;DHT22;56303;52.160;-0.428;2023-01-28T11:21:53;7.80;99.90
20744;DHT22;56303;52.160;-0.428;2023-01-28T11:24:24;7.40;99.90
20744;DHT22;56303;52.160;-0.428;2023-01-28T11:26:54;7.40;99.90
20744;DHT22;56303;52.160;-0.428;2023-01-28T11:29:31;7.30;99.90
20744;DHT22;56303;52.160;-0.428;2023-01-28T11:31:59;7.60;99.90
20744;DHT22;56303;52.160;-0.428;2023-01-28T11:34:29;7.50;99.90
20744;DHT22;56303;52.160;-0.428;2023-01-28T11:37:12;7.30;99.90
20744;DHT22;56303;52.160;-0.428;2023-01-28T11:39:42;7.50;99.90
20744;DHT22;56303;52.160;-0.428;2023-01-28T11:42:17;7.50;99.90
20744;DHT22;56303;52.160;-0.428;2023-01-28T11:44:45;7.50;99.90
20744;DHT22;56303;52.160;-0.428;2023-01-28T11:58:18;7.50;99.90
20744;DHT22;56303;52.160;-0.428;2023-01-28T12:26:04;7.70;99.90
20744;DHT22;56303;52.160;-0.428;2023-01-28T12:31:29;7.70;99.90
20744;DHT22;56303;52.160;-0.428;2023-01-28T12:43:44;7.80;99.90
20744;DHT22;56303;52.160;-0.428;2023-01-28T12:46:01;7.90;99.90
20744;DHT22;56303;52.160;-0.428;2023-01-28T12:49:03;8.10;99.90
20744;DHT22;56303;52.160;-0.428;2023-01-28T12:51:46;7.80;99.90
20744;DHT22;56303;52.160;-0.428;2023-01-28T12:54:39;8.20;99.90
20744;DHT22;56303;52.160;-0.428;2023-01-28T12:57:20;8.30;99.90
20744;DHT22;56303;52.160;-0.428;2023-01-28T12:59:52;8.20;99.90
20744;DHT22;56303;52.160;-0.428;2023-01-28T13:02:26;8.30;99.90
20744;DHT22;56303;52.160;-0.428;2023-01-28T13:07:56;8.10;99.90
20744;DHT22;56303;52.160;-0.428;2023-01-28T13:10:44;8.10;99.90
20744;DHT22;56303;52.160;-0.428;2023-01-28T13:13:37;8.20;99.90
20744;DHT22;56303;52.160;-0.428;2023-01-28T13:16:09;8.10;99.90
20744;DHT22;56303;52.160;-0.428;2023-01-28T13:18:45;8.30;99.90
20744;DHT22;56303;52.160;-0.428;2023-01-28T13:21:36;8.10;99.90
20744;DHT22;56303;52.160;-0.428;2023-01-28T13:26:52;7.80;99.90
20744;DHT22;56303;52.160;-0.428;2023-01-28T13:29:30;7.90;99.90
20744;DHT22;56303;52.160;-0.428;2023-01-28T13:32:00;8.10;99.90
20744;DHT22;56303;52.160;-0.428;2023-01-28T13:34:34;8.10;99.90
20744;DHT22;56303;52.160;-0.428;2023-01-28T13:37:35;7.80;99.90
20744;DHT22;56303;52.160;-0.428;2023-01-28T13:42:45;8.40;99.90
20744;DHT22;56303;52.160;-0.428;2023-01-28T13:45:23;8.10;99.90
20744;DHT22;56303;52.160;-0.428;2023-01-28T13:50:51;8.00;99.90
20744;DHT22;56303;52.160;-0.428;2023-01-28T13:53:52;7.80;99.90
20744;DHT22;56303;52.160;-0.428;2023-01-28T13:56:27;8.30;99.90
20744;DHT22;56303;52.160;-0.428;2023-01-28T14:09:18;7.70;99.90
20744;DHT22;56303;52.160;-0.428;2023-01-28T14:17:45;7.90;99.90
20744;DHT22;56303;52.160;-0.428;2023-01-28T14:20:25;7.50;99.90
20744;DHT22;56303;52.160;-0.428;2023-01-28T14:23:01;7.50;99.90
20744;DHT22;56303;52.160;-0.428;2023-01-28T14:31:37;7.60;99.90
20744;DHT22;56303;52.160;-0.428;2023-01-28T14:34:41;7.60;99.90
20744;DHT22;56303;52.160;-0.428;2023-01-28T14:37:17;7.60;99.90
20744;DHT22;56303;52.160;-0.428;2023-01-28T14:39:50;7.90;99.90
20744;DHT22;56303;52.160;-0.428;2023-01-28T14:42:42;7.90;99.90
20744;DHT22;56303;52.160;-0.428;2023-01-28T14:51:08;7.90;99.90
20744;DHT22;56303;52.160;-0.428;2023-01-28T14:59:47;8.70;99.90
20744;DHT22;56303;52.160;-0.428;2023-01-28T15:02:22;8.50;99.90
20744;DHT22;56303;52.160;-0.428;2023-01-28T15:04:51;8.70;99.90
20744;DHT22;56303;52.160;-0.428;2023-01-28T15:07:30;8.70;99.90
20744;DHT22;56303;52.160;-0.428;2023-01-28T15:10:06;8.70;99.90
20744;DHT22;56303;52.160;-0.428;2023-01-28T15:12:38;8.50;99.90
20744;DHT22;56303;52.160;-0.428;2023-01-28T15:15:13;8.60;99.90
20744;DHT22;56303;52.160;-0.428;2023-01-28T15:17:42;8.90;99.90
20744;DHT22;56303;52.160;-0.428;2023-01-28T15:20:17;9.00;99.90
20744;DHT22;56303;52.160;-0.428;2023-01-28T15:22:45;9.00;99.90
20744;DHT22;56303;52.160;-0.428;2023-01-28T15:25:17;8.80;99.90
20744;DHT22;56303;52.160;-0.428;2023-01-28T15:27:45;8.90;99.90
20744;DHT22;56303;52.160;-0.428;2023-01-28T15:30:28;8.10;99.90
20744;DHT22;56303;52.160;-0.428;2023-01-28T15:33:20;8.80;99.90
20744;DHT22;56303;52.160;-0.428;2023-01-28T15:35:47;8.70;99.90
20744;DHT22;56303;52.160;-0.428;2023-01-28T15:38:14;8.80;99.90
20744;DHT22;56303;52.160;-0.428;2023-01-28T15:41:22;9.00;99.90
20744;DHT22;56303;52.160;-0.428;2023-01-28T15:43:47;9.10;99.90
20744;DHT22;56303;52.160;-0.428;2023-01-28T15:46:14;9.00;99.90
20744;DHT22;56303;52.160;-0.428;2023-01-28T15:48:48;8.60;99.90
20744;DHT22;56303;52.160;-0.428;2023-01-28T15:51:26;8.60;99.90
20744;DHT22;56303;52.160;-0.428;2023-01-28T15:54:03;8.80;99.90
20744;DHT22;56303;52.160;-0.428;2023-01-28T15:56:34;8.60;99.90
20744;DHT22;56303;52.160;-0.428;2023-01-28T15:59:27;8.80;99.90
20744;DHT22;56303;52.160;-0.428;2023-01-28T16:02:27;8.40;99.90
20744;DHT22;56303;52.160;-0.428;2023-01-28T16:05:04;8.60;99.90
20744;DHT22;56303;52.160;-0.428;2023-01-28T16:07:45;8.70;99.90
20744;DHT22;56303;52.160;-0.428;2023-01-28T16:10:31;8.50;99.90
20744;DHT22;56303;52.160;-0.428;2023-01-28T16:13:05;8.20;99.90
20744;DHT22;56303;52.160;-0.428;2023-01-28T16:15:33;8.20;99.90
20744;DHT22;56303;52.160;-0.428;2023-01-28T16:18:00;8.20;99.90
20744;DHT22;56303;52.160;-0.428;2023-01-28T16:20:28;8.10;99.90
20744;DHT22;56303;52.160;-0.428;2023-01-28T16:22:58;8.20;99.90
20744;DHT22;56303;52.160;-0.428;2023-01-28T16:25:34;8.30;99.90
20744;DHT22;56303;52.160;-0.428;2023-01-28T16:28:10;8.10;99.90
20744;DHT22;56303;52.160;-0.428;2023-01-28T16:30:39;8.00;99.90
20744;DHT22;56303;52.160;-0.428;2023-01-28T16:33:17;7.80;99.90
20744;DHT22;56303;52.160;-0.428;2023-01-28T16:35:45;8.00;99.90
20744;DHT22;56303;52.160;-0.428;2023-01-28T16:38:34;8.00;99.90
20744;DHT22;56303;52.160;-0.428;2023-01-28T16:41:04;8.30;99.90
20744;DHT22;56303;52.160;-0.428;2023-01-28T16:43:31;8.20;99.90
20744;DHT22;56303;52.160;-0.428;2023-01-28T16:46:03;8.20;99.90
20744;DHT22;56303;52.160;-0.428;2023-01-28T16:48:38;8.20;99.90
20744;DHT22;56303;52.160;-0.428;2023-01-28T16:51:17;7.80;99.90
20744;DHT22;56303;52.160;-0.428;2023-01-28T16:53:48;7.90;99.90
20744;DHT22;56303;52.160;-0.428;2023-01-28T16:56:21;7.90;99.90
20744;DHT22;56303;52.160;-0.428;2023-01-28T16:59:10;8.20;99.90
20744;DHT22;56303;52.160;-0.428;2023-01-28T17:01:39;7.90;99.90
20744;DHT22;56303;52.160;-0.428;2023-01-28T17:04:06;8.00;99.90
20744;DHT22;56303;52.160;-0.428;2023-01-28T17:06:42;8.00;99.90
20744;DHT22;56303;52.160;-0.428;2023-01-28T17:09:13;7.80;99.90
20744;DHT22;56303;52.160;-0.428;2023-01-28T17:11:41;7.80;99.90
20744;DHT22;56303;52.160;-0.428;2023-01-28T17:14:09;8.10;99.90
20744;DHT22;56303;52.160;-0.428;2023-01-28T17:16:36;8.00;99.90
20744;DHT22;56303;52.160;-0.428;2023-01-28T17:19:04;8.00;99.90
20744;DHT22;56303;52.160;-0.428;2023-01-28T17:21:32;8.20;99.90
20744;DHT22;56303;52.160;-0.428;2023-01-28T17:23:59;8.40;99.90
20744;DHT22;56303;52.160;-0.428;2023-01-28T17:26:30;8.50;99.90
20744;DHT22;56303;52.160;-0.428;2023-01-28T17:29:01;8.60;99.90
20744;DHT22;56303;52.160;-0.428;2023-01-28T17:31:28;8.70;99.90
20744;DHT22;56303;52.160;-0.428;2023-01-28T17:33:56;8.80;99.90
20744;DHT22;56303;52.160;-0.428;2023-01-28T17:36:25;9.30;99.90
20744;DHT22;56303;52.160;-0.428;2023-01-28T17:38:55;9.70;99.90
20744;DHT22;56303;52.160;-0.428;2023-01-28T17:41:21;9.90;99.90
20744;DHT22;56303;52.160;-0.428;2023-01-28T17:43:53;9.60;99.90
20744;DHT22;56303;52.160;-0.428;2023-01-28T17:46:21;9.30;99.90
20744;DHT22;56303;52.160;-0.428;2023-01-28T17:48:53;8.90;99.90
20744;DHT22;56303;52.160;-0.428;2023-01-28T17:51:21;8.90;99.90
20744;DHT22;56303;52.160;-0.428;2023-01-28T17:53:55;9.50;99.90
20744;DHT22;56303;52.160;-0.428;2023-01-28T17:56:26;8.70;99.90
20744;DHT22;56303;52.160;-0.428;2023-01-28T17:58:58;8.60;99.90
20744;DHT22;56303;52.160;-0.428;2023-01-28T18:01:29;8.50;99.90
20744;DHT22;56303;52.160;-0.428;2023-01-28T18:04:00;8.50;99.90